MSC Uma — 9HA3605 — position and weather

sailwx.info

Track history (hours):
 
Tides and Currents Weather Stations Pressure Air Temp Water Temp Dewpoint Dewpoint Depression Visibility Wind Speed Wind Dir Waves Ship Positions

MSC Uma

Last reported at 2017-Sep-19 08:26 UTC. Time now 2017-Sep-19 11:47 UTC.
Position N 38°01' W 009°59'.

Length 194 m; draft 10.6 m.

Type: Ship (hazmat cat A). MMSI: 229783000.

Date/timePositionNaut miles runAvg speedWind from/ knotsBaromVisibWave heightAir tempDewpointWater temp
2017-Sep-19 08:26N 38°01' W 009°59'818.4
2017-Sep-19 07:59N 38°09' W 010°01'918.7
2017-Sep-19 07:31N 38°18' W 010°02'1019.3
2017-Sep-19 07:00N 38°28' W 010°03'1019.3
2017-Sep-19 06:30N 38°37' W 010°06'1019.5
2017-Sep-19 06:00N 38°47' W 010°07'1019.2
2017-Sep-19 05:30N 38°56' W 010°08'1019.2
2017-Sep-19 05:01N 39°06' W 010°07'918.9
2017-Sep-19 04:30N 39°16' W 010°07'1018.8
2017-Sep-19 03:59N 39°25' W 010°06'4118.7
2017-Sep-19 01:46N 40°06' W 009°56'818.5
2017-Sep-19 01:20N 40°14' W 009°54'  
2017-Sep-16 14:32N 47°04' W 002°29'012.7
2017-Sep-16 14:30N 47°04' W 002°29'4 6.9
2017-Sep-16 13:58N 47°08' W 002°27'0 0.1
2017-Sep-16 13:25N 47°08' W 002°27'0 0.0
2017-Sep-16 12:58N 47°08' W 002°27'0 0.0
2017-Sep-16 12:30N 47°08' W 002°27'0 0.2
2017-Sep-16 12:00N 47°08' W 002°27'4 8.0
2017-Sep-16 11:30N 47°08' W 002°21'714.6
2017-Sep-16 11:01N 47°14' W 002°15'611.3
2017-Sep-16 10:30N 47°18' W 002°09'0 0.1
2017-Sep-16 10:00N 47°18' W 002°09'0 0.0
2017-Sep-16 09:29N 47°18' W 002°09'0 0.0
2017-Sep-16 08:59N 47°18' W 002°09'0 0.0
2017-Sep-16 08:29N 47°18' W 002°09'0 0.0
2017-Sep-16 07:59N 47°18' W 002°09'0 0.0
2017-Sep-16 07:29N 47°18' W 002°09'0 0.0
2017-Sep-16 06:56N 47°18' W 002°09'0 0.0
2017-Sep-16 06:29N 47°18' W 002°09'0 0.0
2017-Sep-16 05:59N 47°18' W 002°09'0 0.0
2017-Sep-16 05:29N 47°18' W 002°09'0 0.0
2017-Sep-16 04:59N 47°18' W 002°09'0 0.0
2017-Sep-16 04:29N 47°18' W 002°09'0 0.0
2017-Sep-16 03:53N 47°18' W 002°09'0 0.0
2017-Sep-16 03:29N 47°18' W 002°09'0 0.0
2017-Sep-16 02:59N 47°18' W 002°09'0 0.0
2017-Sep-16 02:29N 47°18' W 002°09'0 0.0
2017-Sep-16 01:59N 47°18' W 002°09'0 0.0
2017-Sep-16 01:29N 47°18' W 002°09'0 0.0
2017-Sep-16 00:59N 47°18' W 002°09'0 0.0
2017-Sep-16 00:29N 47°18' W 002°09'0 0.0
2017-Sep-15 23:59N 47°18' W 002°09'0 0.0
2017-Sep-15 23:29N 47°18' W 002°09'0 0.0
2017-Sep-15 22:59N 47°18' W 002°09'0 0.0
2017-Sep-15 22:29N 47°18' W 002°09'0 0.0
2017-Sep-15 21:59N 47°18' W 002°09'0 0.0
2017-Sep-15 21:29N 47°18' W 002°09'0 0.0
2017-Sep-15 20:59N 47°18' W 002°09'0 0.0
2017-Sep-15 20:29N 47°18' W 002°09'0 0.0
2017-Sep-15 19:59N 47°18' W 002°09'0 0.1
2017-Sep-15 19:29N 47°18' W 002°09'1 2.0
2017-Sep-15 19:00N 47°17' W 002°10'4 9.0
2017-Sep-15 18:31N 47°14' W 002°15'815.3
2017-Sep-15 18:01N 47°08' W 002°21'510.2
2017-Sep-15 17:30N 47°04' W 002°26'612.5
2017-Sep-15 17:00N 47°01' W 002°35'610.8
2017-Sep-15 16:26N 46°60' W 002°43'614.0
2017-Sep-15 16:00N 47°02' W 002°51'714.5
2017-Sep-15 15:30N 47°05' W 003°01'815.7
2017-Sep-15 14:59N 47°08' W 003°12'816.1
2017-Sep-15 14:30N 47°12' W 003°22'816.1
2017-Sep-15 14:00N 47°15' W 003°33'815.9
2017-Sep-15 13:30N 47°18' W 003°44'916.2
2017-Sep-15 12:59N 47°22' W 003°55'3916.1
2017-Sep-15 10:34N 47°42' W 004°44'116.0
2017-Sep-15 10:30N 47°42' W 004°46'816.1
2017-Sep-15 10:00N 47°46' W 004°56'815.8
2017-Sep-15 09:30N 47°50' W 005°06'814.7
2017-Sep-15 08:58N 47°54' W 005°17'1615.2
2017-Sep-15 07:53N 48°02' W 005°38'5614.2
2017-Sep-15 03:58N 48°58' W 005°37'8016.4
2017-Sep-14 23:05N 49°39' W 003°52'116.1
2017-Sep-14 23:00N 49°39' W 003°50'1216.5
2017-Sep-14 22:18N 49°45' W 003°34'516.8
2017-Sep-14 22:00N 49°47' W 003°28'917.2
2017-Sep-14 21:30N 49°52' W 003°16'917.6
2017-Sep-14 21:00N 49°56' W 003°04'917.8
2017-Sep-14 20:30N 49°59' W 002°52'2918.2
2017-Sep-14 18:53N 50°05' W 002°07'717.7
2017-Sep-14 18:30N 50°05' W 001°56'917.2
2017-Sep-14 18:00N 50°02' W 001°44'816.7
2017-Sep-14 17:30N 49°59' W 001°32'816.5
2017-Sep-14 17:00N 49°55' W 001°20'816.1
2017-Sep-14 16:31N 49°51' W 001°09'815.7
2017-Sep-14 16:01N 49°48' W 000°58'2715.9
2017-Sep-14 14:17N 49°35' W 000°21'516.4
2017-Sep-14 14:00N 49°34' W 000°14'815.7
2017-Sep-14 13:30N 49°31' W 000°03'714.4
2017-Sep-14 13:00N 49°28' E 000°07'2 3.2
2017-Sep-14 12:30N 49°28' E 000°09'0 0.0
2017-Sep-14 12:00N 49°28' E 000°09'0 0.0
2017-Sep-14 11:30N 49°28' E 000°09'0 0.0
2017-Sep-14 11:01N 49°28' E 000°09'0 0.0
2017-Sep-14 10:31N 49°28' E 000°09'0 0.0
2017-Sep-14 10:00N 49°28' E 000°09'0 0.0
2017-Sep-14 09:31N 49°28' E 000°09'0 0.0
2017-Sep-14 09:00N 49°28' E 000°09'0 0.0
2017-Sep-14 08:30N 49°28' E 000°09'0 0.0
2017-Sep-14 08:01N 49°28' E 000°09'0 0.0
2017-Sep-14 07:31N 49°28' E 000°09'0 0.0
2017-Sep-14 07:00N 49°28' E 000°09'0 0.0
2017-Sep-14 06:31N 49°28' E 000°09'0 0.0
2017-Sep-14 06:00N 49°28' E 000°09'0 0.0
2017-Sep-14 05:30N 49°28' E 000°09'0 0.0
2017-Sep-14 05:00N 49°28' E 000°09'0 0.0
2017-Sep-14 04:31N 49°28' E 000°09'0 0.0
2017-Sep-14 04:00N 49°28' E 000°09'0 0.0
2017-Sep-14 03:30N 49°28' E 000°09'0 0.0
2017-Sep-14 03:01N 49°28' E 000°09'0 0.0
2017-Sep-14 02:30N 49°28' E 000°09'0 0.0
2017-Sep-14 02:01N 49°28' E 000°09'0 0.0
2017-Sep-14 01:31N 49°28' E 000°09'0 0.0
2017-Sep-14 01:00N 49°28' E 000°09'0 0.0
2017-Sep-14 00:30N 49°28' E 000°09'0 0.0
2017-Sep-14 00:00N 49°28' E 000°09'0 0.0
2017-Sep-13 23:31N 49°28' E 000°09'0 0.0
2017-Sep-13 23:00N 49°28' E 000°09'0 0.0
2017-Sep-13 22:30N 49°28' E 000°09'0 0.0
2017-Sep-13 22:00N 49°28' E 000°09'0 0.0
2017-Sep-13 21:30N 49°28' E 000°09'0 0.0
2017-Sep-13 21:01N 49°28' E 000°09'0 0.0
2017-Sep-13 20:30N 49°28' E 000°09'0 0.0
2017-Sep-13 20:01N 49°28' E 000°09'0 0.0
2017-Sep-13 19:30N 49°28' E 000°09'0 0.0
2017-Sep-13 19:00N 49°28' E 000°09'0 0.0
2017-Sep-13 18:30N 49°28' E 000°09'0 0.0
2017-Sep-13 18:00N 49°28' E 000°09'0 0.0
2017-Sep-13 17:30N 49°28' E 000°09'0 0.0
2017-Sep-13 17:00N 49°28' E 000°09'0 0.0
2017-Sep-13 16:30N 49°28' E 000°09'0 0.0
2017-Sep-13 16:00N 49°28' E 000°09'0 0.0
2017-Sep-13 15:31N 49°28' E 000°09'0 0.0
2017-Sep-13 15:00N 49°28' E 000°09'0 0.0
2017-Sep-13 14:30N 49°28' E 000°09'0 0.0
2017-Sep-13 14:00N 49°28' E 000°09'0 0.0
2017-Sep-13 13:30N 49°28' E 000°09'0 0.0
2017-Sep-13 13:01N 49°28' E 000°09'0 0.0
2017-Sep-13 12:31N 49°28' E 000°09'0 0.0
2017-Sep-13 12:01N 49°28' E 000°09'0 0.0
2017-Sep-13 11:30N 49°28' E 000°09'0 0.0
2017-Sep-13 11:01N 49°28' E 000°09'0 0.0
2017-Sep-13 10:30N 49°28' E 000°09'0 0.0
2017-Sep-13 10:00N 49°28' E 000°09'0 0.0
2017-Sep-13 09:31N 49°28' E 000°09'0 0.0
2017-Sep-13 09:01N 49°28' E 000°09'0 0.0
2017-Sep-13 08:30N 49°28' E 000°09'0 0.0
2017-Sep-13 08:01N 49°28' E 000°09'0 0.0
2017-Sep-13 07:30N 49°28' E 000°09'0 0.0
2017-Sep-13 07:01N 49°28' E 000°09'0 0.0
2017-Sep-13 06:31N 49°28' E 000°09'0 0.0
2017-Sep-13 06:00N 49°28' E 000°09'0 0.0
2017-Sep-13 05:30N 49°28' E 000°09'0 0.0
2017-Sep-13 05:01N 49°28' E 000°09'0 0.0
2017-Sep-13 04:30N 49°28' E 000°09'0 0.0
2017-Sep-13 04:00N 49°28' E 000°09'0 0.0
2017-Sep-13 03:30N 49°28' E 000°09'0 0.0
2017-Sep-13 03:00N 49°28' E 000°09'0 0.0
2017-Sep-13 02:31N 49°28' E 000°09'0 0.0
2017-Sep-13 02:00N 49°28' E 000°09'0 0.0
2017-Sep-13 01:30N 49°28' E 000°09'0 0.0
2017-Sep-13 01:00N 49°28' E 000°09'0 0.0
2017-Sep-13 00:30N 49°28' E 000°09'0 0.0
2017-Sep-13 00:00N 49°28' E 000°09'0 0.0
2017-Sep-12 23:30N 49°28' E 000°09'0 0.0
2017-Sep-12 23:01N 49°28' E 000°09'0 0.0
2017-Sep-12 22:30N 49°28' E 000°09'0 0.0
2017-Sep-12 22:00N 49°28' E 000°09'0 0.0
2017-Sep-12 21:30N 49°28' E 000°09'0 0.0
2017-Sep-12 21:00N 49°28' E 000°09'0 0.0
2017-Sep-12 20:31N 49°28' E 000°09'0 0.0
2017-Sep-12 20:01N 49°28' E 000°09'0 0.0
2017-Sep-12 19:30N 49°28' E 000°09'0 0.0
2017-Sep-12 19:01N 49°28' E 000°09'0 0.0
2017-Sep-12 18:30N 49°28' E 000°09'0 0.0
2017-Sep-12 18:00N 49°28' E 000°09'0 0.0
2017-Sep-12 17:31N 49°28' E 000°09'0 0.0
2017-Sep-12 17:00N 49°28' E 000°09'0 0.0
2017-Sep-12 16:30N 49°28' E 000°09'0 0.0
2017-Sep-12 16:00N 49°28' E 000°09'0 0.0
2017-Sep-12 15:30N 49°28' E 000°09'0 0.0
2017-Sep-12 15:01N 49°28' E 000°09'0 0.0
2017-Sep-12 14:30N 49°28' E 000°09'0 0.0
2017-Sep-12 14:01N 49°28' E 000°09'0 0.0
2017-Sep-12 13:30N 49°28' E 000°09'0 0.0
2017-Sep-12 13:00N 49°28' E 000°09'0 0.0
2017-Sep-12 12:30N 49°28' E 000°09'0 0.0
2017-Sep-12 12:00N 49°28' E 000°09'0 0.0
2017-Sep-12 11:31N 49°28' E 000°09'0 0.0
2017-Sep-12 11:01N 49°28' E 000°09'0 0.0
2017-Sep-12 10:30N 49°28' E 000°09'0 0.0
2017-Sep-12 10:00N 49°28' E 000°09'0 0.0
2017-Sep-12 09:30N 49°28' E 000°09'0 0.0
2017-Sep-12 09:00N 49°28' E 000°09'0 0.0
2017-Sep-12 08:31N 49°28' E 000°09'0 0.0
2017-Sep-12 08:00N 49°28' E 000°09'0 0.0
2017-Sep-12 07:30N 49°28' E 000°09'0 0.0
2017-Sep-12 07:00N 49°28' E 000°09'0 0.0
2017-Sep-12 06:31N 49°28' E 000°09'0 0.0
2017-Sep-12 06:00N 49°28' E 000°09'0 0.0
2017-Sep-12 05:30N 49°28' E 000°09'0 0.0
2017-Sep-12 05:00N 49°28' E 000°09'0 0.0
2017-Sep-12 04:30N 49°28' E 000°09'0 0.0
2017-Sep-12 04:00N 49°28' E 000°09'0 0.0
2017-Sep-12 03:30N 49°28' E 000°09'0 0.0
2017-Sep-12 03:01N 49°28' E 000°09'0 0.0
2017-Sep-12 02:31N 49°28' E 000°09'0 0.0
2017-Sep-12 02:00N 49°28' E 000°09'2 4.4
2017-Sep-12 01:31N 49°28' E 000°06'714.5
2017-Sep-12 01:01N 49°31' W 000°04'5 9.3
2017-Sep-12 00:30N 49°34' W 000°09'0 0.0
2017-Sep-12 00:00N 49°34' W 000°09'0 0.1
2017-Sep-11 23:31N 49°34' W 000°09'0 0.0
2017-Sep-11 23:01N 49°34' W 000°09'0 0.1
2017-Sep-11 22:31N 49°34' W 000°09'0 0.0
2017-Sep-11 22:01N 49°34' W 000°09'0 0.0
2017-Sep-11 21:30N 49°34' W 000°09'0 0.0
2017-Sep-11 21:01N 49°34' W 000°09'0 0.0
2017-Sep-11 20:30N 49°34' W 000°09'0 0.0
2017-Sep-11 20:01N 49°34' W 000°09'0 0.0
2017-Sep-11 19:31N 49°34' W 000°09'0 0.0
2017-Sep-11 19:00N 49°34' W 000°09'0 0.0
2017-Sep-11 18:31N 49°34' W 000°09'0 0.0
2017-Sep-11 18:00N 49°34' W 000°09'0 0.0
2017-Sep-11 17:31N 49°34' W 000°09'0 0.0
2017-Sep-11 17:01N 49°34' W 000°09'0 0.1
2017-Sep-11 16:31N 49°34' W 000°09'0 0.0
2017-Sep-11 16:01N 49°34' W 000°09'0 0.0
2017-Sep-11 15:31N 49°34' W 000°09'0 0.0
2017-Sep-11 15:00N 49°34' W 000°09'0 0.0
2017-Sep-11 14:31N 49°34' W 000°09'0 0.0
2017-Sep-11 14:01N 49°34' W 000°09'0 0.0
2017-Sep-11 13:30N 49°34' W 000°09'0 0.1
2017-Sep-11 13:01N 49°34' W 000°09'0 0.0
2017-Sep-11 12:30N 49°34' W 000°09'0 0.0
2017-Sep-11 12:00N 49°34' W 000°09'0 0.0
2017-Sep-11 11:31N 49°34' W 000°09'0 0.1
2017-Sep-11 11:00N 49°34' W 000°09'0 0.0
2017-Sep-11 10:31N 49°34' W 000°09'0 0.9
2017-Sep-11 10:00N 49°34' W 000°08'713.4
2017-Sep-11 09:31N 49°41' W 000°09'917.0
2017-Sep-11 09:00N 49°49' W 000°09'2217.3
2017-Sep-11 07:45N 50°11' W 000°10'417.4
2017-Sep-11 07:30N 50°15' W 000°10'816.3
2017-Sep-11 07:00N 50°23' W 000°07'815.7
2017-Sep-11 06:31N 50°29' E 000°01'1617.5
2017-Sep-11 05:35N 50°34' E 000°25'317.4
2017-Sep-11 05:25N 50°35' E 000°30'716.9
2017-Sep-11 05:01N 50°38' E 000°40'816.5
2017-Sep-11 04:30N 50°42' E 000°50'815.9
2017-Sep-11 04:00N 50°47' E 001°00'815.1
2017-Sep-11 03:30N 50°51' E 001°10'714.2
2017-Sep-11 03:00N 50°55' E 001°19'713.6
2017-Sep-11 02:30N 51°01' E 001°26'713.3
2017-Sep-11 02:00N 51°06' E 001°33'713.7
2017-Sep-11 01:30N 51°10' E 001°41'815.1
2017-Sep-11 01:00N 51°16' E 001°49'816.6
2017-Sep-11 00:30N 51°23' E 001°56'714.0
2017-Sep-11 00:01N 51°23' E 002°08'815.9
2017-Sep-10 23:30N 51°21' E 002°20'917.6
2017-Sep-10 23:00N 51°23' E 002°34'715.0
2017-Sep-10 22:31N 51°22' E 002°46'816.7
2017-Sep-10 22:01N 51°23' E 002°59'917.4
2017-Sep-10 21:31N 51°25' E 003°13'918.8
2017-Sep-10 21:01N 51°25' E 003°28'611.9
2017-Sep-10 20:30N 51°26' E 003°37'510.1
2017-Sep-10 20:00N 51°23' E 003°43'613.0
2017-Sep-10 19:30N 51°21' E 003°53'713.1
2017-Sep-10 19:00N 51°25' E 004°02'510.7
2017-Sep-10 18:30N 51°23' E 004°09'5 9.5
2017-Sep-10 18:00N 51°21' E 004°16'3 6.8
2017-Sep-10 17:31N 51°17' E 004°15'0 0.3
2017-Sep-10 16:59N 51°17' E 004°15'0 0.0
2017-Sep-10 16:29N 51°17' E 004°15'0 0.0
2017-Sep-10 15:59N 51°17' E 004°15'0 0.0
2017-Sep-10 15:29N 51°17' E 004°15'0 0.0
2017-Sep-10 14:59N 51°17' E 004°15'0 0.0
2017-Sep-10 13:59N 51°17' E 004°15'0 0.0
2017-Sep-10 13:29N 51°17' E 004°15'0 0.0
2017-Sep-10 12:59N 51°17' E 004°15'0 0.0
2017-Sep-10 12:29N 51°17' E 004°15'0 0.0
2017-Sep-10 11:59N 51°17' E 004°15'0 0.0
2017-Sep-10 11:29N 51°17' E 004°15'0 0.0
2017-Sep-10 10:59N 51°17' E 004°15'0 0.0
2017-Sep-10 10:29N 51°17' E 004°15'0 0.0
2017-Sep-10 09:59N 51°17' E 004°15'0 0.0
2017-Sep-10 09:26N 51°17' E 004°15'0 0.0
2017-Sep-10 08:59N 51°17' E 004°15'0 0.0
2017-Sep-10 08:23N 51°17' E 004°15'0 0.0
2017-Sep-10 07:53N 51°17' E 004°15'0 0.0
2017-Sep-10 07:29N 51°17' E 004°15'0 0.0
2017-Sep-10 06:59N 51°17' E 004°15'0 0.0
2017-Sep-10 06:26N 51°17' E 004°15'0 0.0
2017-Sep-10 05:56N 51°17' E 004°15'0 0.0
2017-Sep-10 05:29N 51°17' E 004°15'0 0.0
2017-Sep-10 04:59N 51°17' E 004°15'0 0.0
2017-Sep-10 04:29N 51°17' E 004°15'0 0.0
2017-Sep-10 03:59N 51°17' E 004°15'0 0.0
2017-Sep-10 03:29N 51°17' E 004°15'0 0.0
2017-Sep-10 02:59N 51°17' E 004°15'0 0.0
2017-Sep-10 02:29N 51°17' E 004°15'0 0.0
2017-Sep-10 01:56N 51°17' E 004°15'0 0.0
2017-Sep-10 01:29N 51°17' E 004°15'0 0.0
2017-Sep-10 00:59N 51°17' E 004°15'0 0.0
2017-Sep-10 00:29N 51°17' E 004°15'0 0.0
2017-Sep-09 23:59N 51°17' E 004°15'0 0.0
2017-Sep-09 23:29N 51°17' E 004°15'0 0.0
2017-Sep-09 22:59N 51°17' E 004°15'0 0.0
2017-Sep-09 22:29N 51°17' E 004°15'0 0.0
2017-Sep-09 21:56N 51°17' E 004°15'0 0.0
2017-Sep-09 21:29N 51°17' E 004°15'0 0.0
2017-Sep-09 20:59N 51°17' E 004°15'0 0.0
2017-Sep-09 20:29N 51°17' E 004°15'0 0.0
2017-Sep-09 19:56N 51°17' E 004°15'0 0.2
2017-Sep-09 19:30N 51°17' E 004°16'2 4.7
2017-Sep-09 19:01N 51°20' E 004°16'3 6.0
2017-Sep-09 18:30N 51°22' E 004°13'4 8.8
2017-Sep-09 18:00N 51°22' E 004°06'510.4
2017-Sep-09 17:30N 51°26' E 004°01'510.8
2017-Sep-09 17:00N 51°22' E 003°55'611.8
2017-Sep-09 16:30N 51°22' E 003°45'612.3
2017-Sep-09 16:01N 51°26' E 003°40'611.8
2017-Sep-09 15:30N 51°25' E 003°30'815.2
2017-Sep-09 15:01N 51°24' E 003°18'816.3
2017-Sep-09 14:31N 51°24' E 003°05'916.9
2017-Sep-09 14:00N 51°22' E 002°52'816.3
2017-Sep-09 13:30N 51°22' E 002°39'4 6.9
2017-Sep-09 12:59N 51°20' E 002°34'0 0.0
2017-Sep-09 12:29N 51°20' E 002°34'0 0.4
2017-Sep-09 11:59N 51°20' E 002°33'0 0.1
2017-Sep-09 11:29N 51°20' E 002°33'0 0.0
2017-Sep-09 10:59N 51°20' E 002°33'0 0.0
2017-Sep-09 10:29N 51°20' E 002°33'0 0.0
2017-Sep-09 09:59N 51°20' E 002°33'0 0.0
2017-Sep-09 09:29N 51°20' E 002°33'0 0.0
2017-Sep-09 08:59N 51°20' E 002°33'0 0.0
2017-Sep-09 08:29N 51°20' E 002°33'  
Track history (hours):
 
Tides and Currents Weather Stations Pressure Air Temp Water Temp Dewpoint Dewpoint Depression Visibility Wind Speed Wind Dir Waves Ship Positions

MSC Uma

Last reported at 2017-Sep-19 08:26 UTC. Time now 2017-Sep-19 11:47 UTC.
Position N 38°01' W 009°59'.

Length 194 m; draft 10.6 m.

Type: Ship (hazmat cat A). MMSI: 229783000.

Date/timePositionNaut miles runAvg speedWind from/ knotsBaromVisibWave heightAir tempDewpointWater temp
2017-Sep-19 08:26N 38°01' W 009°59'818.4
2017-Sep-19 07:59N 38°09' W 010°01'918.7
2017-Sep-19 07:31N 38°18' W 010°02'1019.3
2017-Sep-19 07:00N 38°28' W 010°03'1019.3
2017-Sep-19 06:30N 38°37' W 010°06'1019.5
2017-Sep-19 06:00N 38°47' W 010°07'1019.2
2017-Sep-19 05:30N 38°56' W 010°08'1019.2
2017-Sep-19 05:01N 39°06' W 010°07'918.9
2017-Sep-19 04:30N 39°16' W 010°07'1018.8
2017-Sep-19 03:59N 39°25' W 010°06'4118.7
2017-Sep-19 01:46N 40°06' W 009°56'818.5
2017-Sep-19 01:20N 40°14' W 009°54'  
2017-Sep-16 14:32N 47°04' W 002°29'012.7
2017-Sep-16 14:30N 47°04' W 002°29'4 6.9
2017-Sep-16 13:58N 47°08' W 002°27'0 0.1
2017-Sep-16 13:25N 47°08' W 002°27'0 0.0
2017-Sep-16 12:58N 47°08' W 002°27'0 0.0
2017-Sep-16 12:30N 47°08' W 002°27'0 0.2
2017-Sep-16 12:00N 47°08' W 002°27'4 8.0
2017-Sep-16 11:30N 47°08' W 002°21'714.6
2017-Sep-16 11:01N 47°14' W 002°15'611.3
2017-Sep-16 10:30N 47°18' W 002°09'0 0.1
2017-Sep-16 10:00N 47°18' W 002°09'0 0.0
2017-Sep-16 09:29N 47°18' W 002°09'0 0.0
2017-Sep-16 08:59N 47°18' W 002°09'0 0.0
2017-Sep-16 08:29N 47°18' W 002°09'0 0.0
2017-Sep-16 07:59N 47°18' W 002°09'0 0.0
2017-Sep-16 07:29N 47°18' W 002°09'0 0.0
2017-Sep-16 06:56N 47°18' W 002°09'0 0.0
2017-Sep-16 06:29N 47°18' W 002°09'0 0.0
2017-Sep-16 05:59N 47°18' W 002°09'0 0.0
2017-Sep-16 05:29N 47°18' W 002°09'0 0.0
2017-Sep-16 04:59N 47°18' W 002°09'0 0.0
2017-Sep-16 04:29N 47°18' W 002°09'0 0.0
2017-Sep-16 03:53N 47°18' W 002°09'0 0.0
2017-Sep-16 03:29N 47°18' W 002°09'0 0.0
2017-Sep-16 02:59N 47°18' W 002°09'0 0.0
2017-Sep-16 02:29N 47°18' W 002°09'0 0.0
2017-Sep-16 01:59N 47°18' W 002°09'0 0.0
2017-Sep-16 01:29N 47°18' W 002°09'0 0.0
2017-Sep-16 00:59N 47°18' W 002°09'0 0.0
2017-Sep-16 00:29N 47°18' W 002°09'0 0.0
2017-Sep-15 23:59N 47°18' W 002°09'0 0.0
2017-Sep-15 23:29N 47°18' W 002°09'0 0.0
2017-Sep-15 22:59N 47°18' W 002°09'0 0.0
2017-Sep-15 22:29N 47°18' W 002°09'0 0.0
2017-Sep-15 21:59N 47°18' W 002°09'0 0.0
2017-Sep-15 21:29N 47°18' W 002°09'0 0.0
2017-Sep-15 20:59N 47°18' W 002°09'0 0.0
2017-Sep-15 20:29N 47°18' W 002°09'0 0.0
2017-Sep-15 19:59N 47°18' W 002°09'0 0.1
2017-Sep-15 19:29N 47°18' W 002°09'1 2.0
2017-Sep-15 19:00N 47°17' W 002°10'4 9.0
2017-Sep-15 18:31N 47°14' W 002°15'815.3
2017-Sep-15 18:01N 47°08' W 002°21'510.2
2017-Sep-15 17:30N 47°04' W 002°26'612.5
2017-Sep-15 17:00N 47°01' W 002°35'610.8
2017-Sep-15 16:26N 46°60' W 002°43'614.0
2017-Sep-15 16:00N 47°02' W 002°51'714.5
2017-Sep-15 15:30N 47°05' W 003°01'815.7
2017-Sep-15 14:59N 47°08' W 003°12'816.1
2017-Sep-15 14:30N 47°12' W 003°22'816.1
2017-Sep-15 14:00N 47°15' W 003°33'815.9
2017-Sep-15 13:30N 47°18' W 003°44'916.2
2017-Sep-15 12:59N 47°22' W 003°55'3916.1
2017-Sep-15 10:34N 47°42' W 004°44'116.0
2017-Sep-15 10:30N 47°42' W 004°46'816.1
2017-Sep-15 10:00N 47°46' W 004°56'815.8
2017-Sep-15 09:30N 47°50' W 005°06'814.7
2017-Sep-15 08:58N 47°54' W 005°17'1615.2
2017-Sep-15 07:53N 48°02' W 005°38'5614.2
2017-Sep-15 03:58N 48°58' W 005°37'8016.4
2017-Sep-14 23:05N 49°39' W 003°52'116.1
2017-Sep-14 23:00N 49°39' W 003°50'1216.5
2017-Sep-14 22:18N 49°45' W 003°34'516.8
2017-Sep-14 22:00N 49°47' W 003°28'917.2
2017-Sep-14 21:30N 49°52' W 003°16'917.6
2017-Sep-14 21:00N 49°56' W 003°04'917.8
2017-Sep-14 20:30N 49°59' W 002°52'2918.2
2017-Sep-14 18:53N 50°05' W 002°07'717.7
2017-Sep-14 18:30N 50°05' W 001°56'917.2
2017-Sep-14 18:00N 50°02' W 001°44'816.7
2017-Sep-14 17:30N 49°59' W 001°32'816.5
2017-Sep-14 17:00N 49°55' W 001°20'816.1
2017-Sep-14 16:31N 49°51' W 001°09'815.7
2017-Sep-14 16:01N 49°48' W 000°58'2715.9
2017-Sep-14 14:17N 49°35' W 000°21'516.4
2017-Sep-14 14:00N 49°34' W 000°14'815.7
2017-Sep-14 13:30N 49°31' W 000°03'714.4
2017-Sep-14 13:00N 49°28' E 000°07'2 3.2
2017-Sep-14 12:30N 49°28' E 000°09'0 0.0
2017-Sep-14 12:00N 49°28' E 000°09'0 0.0
2017-Sep-14 11:30N 49°28' E 000°09'0 0.0
2017-Sep-14 11:01N 49°28' E 000°09'0 0.0
2017-Sep-14 10:31N 49°28' E 000°09'0 0.0
2017-Sep-14 10:00N 49°28' E 000°09'0 0.0
2017-Sep-14 09:31N 49°28' E 000°09'0 0.0
2017-Sep-14 09:00N 49°28' E 000°09'0 0.0
2017-Sep-14 08:30N 49°28' E 000°09'0 0.0
2017-Sep-14 08:01N 49°28' E 000°09'0 0.0
2017-Sep-14 07:31N 49°28' E 000°09'0 0.0
2017-Sep-14 07:00N 49°28' E 000°09'0 0.0
2017-Sep-14 06:31N 49°28' E 000°09'0 0.0
2017-Sep-14 06:00N 49°28' E 000°09'0 0.0
2017-Sep-14 05:30N 49°28' E 000°09'0 0.0
2017-Sep-14 05:00N 49°28' E 000°09'0 0.0
2017-Sep-14 04:31N 49°28' E 000°09'0 0.0
2017-Sep-14 04:00N 49°28' E 000°09'0 0.0
2017-Sep-14 03:30N 49°28' E 000°09'0 0.0
2017-Sep-14 03:01N 49°28' E 000°09'0 0.0
2017-Sep-14 02:30N 49°28' E 000°09'0 0.0
2017-Sep-14 02:01N 49°28' E 000°09'0 0.0
2017-Sep-14 01:31N 49°28' E 000°09'0 0.0
2017-Sep-14 01:00N 49°28' E 000°09'0 0.0
2017-Sep-14 00:30N 49°28' E 000°09'0 0.0
2017-Sep-14 00:00N 49°28' E 000°09'0 0.0
2017-Sep-13 23:31N 49°28' E 000°09'0 0.0
2017-Sep-13 23:00N 49°28' E 000°09'0 0.0
2017-Sep-13 22:30N 49°28' E 000°09'0 0.0
2017-Sep-13 22:00N 49°28' E 000°09'0 0.0
2017-Sep-13 21:30N 49°28' E 000°09'0 0.0
2017-Sep-13 21:01N 49°28' E 000°09'0 0.0
2017-Sep-13 20:30N 49°28' E 000°09'0 0.0
2017-Sep-13 20:01N 49°28' E 000°09'0 0.0
2017-Sep-13 19:30N 49°28' E 000°09'0 0.0
2017-Sep-13 19:00N 49°28' E 000°09'0 0.0
2017-Sep-13 18:30N 49°28' E 000°09'0 0.0
2017-Sep-13 18:00N 49°28' E 000°09'0 0.0
2017-Sep-13 17:30N 49°28' E 000°09'0 0.0
2017-Sep-13 17:00N 49°28' E 000°09'0 0.0
2017-Sep-13 16:30N 49°28' E 000°09'0 0.0
2017-Sep-13 16:00N 49°28' E 000°09'0 0.0
2017-Sep-13 15:31N 49°28' E 000°09'0 0.0
2017-Sep-13 15:00N 49°28' E 000°09'0 0.0
2017-Sep-13 14:30N 49°28' E 000°09'0 0.0
2017-Sep-13 14:00N 49°28' E 000°09'0 0.0
2017-Sep-13 13:30N 49°28' E 000°09'0 0.0
2017-Sep-13 13:01N 49°28' E 000°09'0 0.0
2017-Sep-13 12:31N 49°28' E 000°09'0 0.0
2017-Sep-13 12:01N 49°28' E 000°09'0 0.0
2017-Sep-13 11:30N 49°28' E 000°09'0 0.0
2017-Sep-13 11:01N 49°28' E 000°09'0 0.0
2017-Sep-13 10:30N 49°28' E 000°09'0 0.0
2017-Sep-13 10:00N 49°28' E 000°09'0 0.0
2017-Sep-13 09:31N 49°28' E 000°09'0 0.0
2017-Sep-13 09:01N 49°28' E 000°09'0 0.0
2017-Sep-13 08:30N 49°28' E 000°09'0 0.0
2017-Sep-13 08:01N 49°28' E 000°09'0 0.0
2017-Sep-13 07:30N 49°28' E 000°09'0 0.0
2017-Sep-13 07:01N 49°28' E 000°09'0 0.0
2017-Sep-13 06:31N 49°28' E 000°09'0 0.0
2017-Sep-13 06:00N 49°28' E 000°09'0 0.0
2017-Sep-13 05:30N 49°28' E 000°09'0 0.0
2017-Sep-13 05:01N 49°28' E 000°09'0 0.0
2017-Sep-13 04:30N 49°28' E 000°09'0 0.0
2017-Sep-13 04:00N 49°28' E 000°09'0 0.0
2017-Sep-13 03:30N 49°28' E 000°09'0 0.0
2017-Sep-13 03:00N 49°28' E 000°09'0 0.0
2017-Sep-13 02:31N 49°28' E 000°09'0 0.0
2017-Sep-13 02:00N 49°28' E 000°09'0 0.0
2017-Sep-13 01:30N 49°28' E 000°09'0 0.0
2017-Sep-13 01:00N 49°28' E 000°09'0 0.0
2017-Sep-13 00:30N 49°28' E 000°09'0 0.0
2017-Sep-13 00:00N 49°28' E 000°09'0 0.0
2017-Sep-12 23:30N 49°28' E 000°09'0 0.0
2017-Sep-12 23:01N 49°28' E 000°09'0 0.0
2017-Sep-12 22:30N 49°28' E 000°09'0 0.0
2017-Sep-12 22:00N 49°28' E 000°09'0 0.0
2017-Sep-12 21:30N 49°28' E 000°09'0 0.0
2017-Sep-12 21:00N 49°28' E 000°09'0 0.0
2017-Sep-12 20:31N 49°28' E 000°09'0 0.0
2017-Sep-12 20:01N 49°28' E 000°09'0 0.0
2017-Sep-12 19:30N 49°28' E 000°09'0 0.0
2017-Sep-12 19:01N 49°28' E 000°09'0 0.0
2017-Sep-12 18:30N 49°28' E 000°09'0 0.0
2017-Sep-12 18:00N 49°28' E 000°09'0 0.0
2017-Sep-12 17:31N 49°28' E 000°09'0 0.0
2017-Sep-12 17:00N 49°28' E 000°09'0 0.0
2017-Sep-12 16:30N 49°28' E 000°09'0 0.0
2017-Sep-12 16:00N 49°28' E 000°09'0 0.0
2017-Sep-12 15:30N 49°28' E 000°09'0 0.0
2017-Sep-12 15:01N 49°28' E 000°09'0 0.0
2017-Sep-12 14:30N 49°28' E 000°09'0 0.0
2017-Sep-12 14:01N 49°28' E 000°09'0 0.0
2017-Sep-12 13:30N 49°28' E 000°09'0 0.0
2017-Sep-12 13:00N 49°28' E 000°09'0 0.0
2017-Sep-12 12:30N 49°28' E 000°09'0 0.0
2017-Sep-12 12:00N 49°28' E 000°09'0 0.0
2017-Sep-12 11:31N 49°28' E 000°09'0 0.0
2017-Sep-12 11:01N 49°28' E 000°09'0 0.0
2017-Sep-12 10:30N 49°28' E 000°09'0 0.0
2017-Sep-12 10:00N 49°28' E 000°09'0 0.0
2017-Sep-12 09:30N 49°28' E 000°09'0 0.0
2017-Sep-12 09:00N 49°28' E 000°09'0 0.0
2017-Sep-12 08:31N 49°28' E 000°09'0 0.0
2017-Sep-12 08:00N 49°28' E 000°09'0 0.0
2017-Sep-12 07:30N 49°28' E 000°09'0 0.0
2017-Sep-12 07:00N 49°28' E 000°09'0 0.0
2017-Sep-12 06:31N 49°28' E 000°09'0 0.0
2017-Sep-12 06:00N 49°28' E 000°09'0 0.0
2017-Sep-12 05:30N 49°28' E 000°09'0 0.0
2017-Sep-12 05:00N 49°28' E 000°09'0 0.0
2017-Sep-12 04:30N 49°28' E 000°09'0 0.0
2017-Sep-12 04:00N 49°28' E 000°09'0 0.0
2017-Sep-12 03:30N 49°28' E 000°09'0 0.0
2017-Sep-12 03:01N 49°28' E 000°09'0 0.0
2017-Sep-12 02:31N 49°28' E 000°09'0 0.0
2017-Sep-12 02:00N 49°28' E 000°09'2 4.4
2017-Sep-12 01:31N 49°28' E 000°06'714.5
2017-Sep-12 01:01N 49°31' W 000°04'5 9.3
2017-Sep-12 00:30N 49°34' W 000°09'0 0.0
2017-Sep-12 00:00N 49°34' W 000°09'0 0.1
2017-Sep-11 23:31N 49°34' W 000°09'0 0.0
2017-Sep-11 23:01N 49°34' W 000°09'0 0.1
2017-Sep-11 22:31N 49°34' W 000°09'0 0.0
2017-Sep-11 22:01N 49°34' W 000°09'0 0.0
2017-Sep-11 21:30N 49°34' W 000°09'0 0.0
2017-Sep-11 21:01N 49°34' W 000°09'0 0.0
2017-Sep-11 20:30N 49°34' W 000°09'0 0.0
2017-Sep-11 20:01N 49°34' W 000°09'0 0.0
2017-Sep-11 19:31N 49°34' W 000°09'0 0.0
2017-Sep-11 19:00N 49°34' W 000°09'0 0.0
2017-Sep-11 18:31N 49°34' W 000°09'0 0.0
2017-Sep-11 18:00N 49°34' W 000°09'0 0.0
2017-Sep-11 17:31N 49°34' W 000°09'0 0.0
2017-Sep-11 17:01N 49°34' W 000°09'0 0.1
2017-Sep-11 16:31N 49°34' W 000°09'0 0.0
2017-Sep-11 16:01N 49°34' W 000°09'0 0.0
2017-Sep-11 15:31N 49°34' W 000°09'0 0.0
2017-Sep-11 15:00N 49°34' W 000°09'0 0.0
2017-Sep-11 14:31N 49°34' W 000°09'0 0.0
2017-Sep-11 14:01N 49°34' W 000°09'0 0.0
2017-Sep-11 13:30N 49°34' W 000°09'0 0.1
2017-Sep-11 13:01N 49°34' W 000°09'0 0.0
2017-Sep-11 12:30N 49°34' W 000°09'0 0.0
2017-Sep-11 12:00N 49°34' W 000°09'0 0.0
2017-Sep-11 11:31N 49°34' W 000°09'0 0.1
2017-Sep-11 11:00N 49°34' W 000°09'0 0.0
2017-Sep-11 10:31N 49°34' W 000°09'0 0.9
2017-Sep-11 10:00N 49°34' W 000°08'713.4
2017-Sep-11 09:31N 49°41' W 000°09'917.0
2017-Sep-11 09:00N 49°49' W 000°09'2217.3
2017-Sep-11 07:45N 50°11' W 000°10'417.4
2017-Sep-11 07:30N 50°15' W 000°10'816.3
2017-Sep-11 07:00N 50°23' W 000°07'815.7
2017-Sep-11 06:31N 50°29' E 000°01'1617.5
2017-Sep-11 05:35N 50°34' E 000°25'317.4
2017-Sep-11 05:25N 50°35' E 000°30'716.9
2017-Sep-11 05:01N 50°38' E 000°40'816.5
2017-Sep-11 04:30N 50°42' E 000°50'815.9
2017-Sep-11 04:00N 50°47' E 001°00'815.1
2017-Sep-11 03:30N 50°51' E 001°10'714.2
2017-Sep-11 03:00N 50°55' E 001°19'713.6
2017-Sep-11 02:30N 51°01' E 001°26'713.3
2017-Sep-11 02:00N 51°06' E 001°33'713.7
2017-Sep-11 01:30N 51°10' E 001°41'815.1
2017-Sep-11 01:00N 51°16' E 001°49'816.6
2017-Sep-11 00:30N 51°23' E 001°56'714.0
2017-Sep-11 00:01N 51°23' E 002°08'815.9
2017-Sep-10 23:30N 51°21' E 002°20'917.6
2017-Sep-10 23:00N 51°23' E 002°34'715.0
2017-Sep-10 22:31N 51°22' E 002°46'816.7
2017-Sep-10 22:01N 51°23' E 002°59'917.4
2017-Sep-10 21:31N 51°25' E 003°13'918.8
2017-Sep-10 21:01N 51°25' E 003°28'611.9
2017-Sep-10 20:30N 51°26' E 003°37'510.1
2017-Sep-10 20:00N 51°23' E 003°43'613.0
2017-Sep-10 19:30N 51°21' E 003°53'713.1
2017-Sep-10 19:00N 51°25' E 004°02'510.7
2017-Sep-10 18:30N 51°23' E 004°09'5 9.5
2017-Sep-10 18:00N 51°21' E 004°16'3 6.8
2017-Sep-10 17:31N 51°17' E 004°15'0 0.3
2017-Sep-10 16:59N 51°17' E 004°15'0 0.0
2017-Sep-10 16:29N 51°17' E 004°15'0 0.0
2017-Sep-10 15:59N 51°17' E 004°15'0 0.0
2017-Sep-10 15:29N 51°17' E 004°15'0 0.0
2017-Sep-10 14:59N 51°17' E 004°15'0 0.0
2017-Sep-10 13:59N 51°17' E 004°15'0 0.0
2017-Sep-10 13:29N 51°17' E 004°15'0 0.0
2017-Sep-10 12:59N 51°17' E 004°15'0 0.0
2017-Sep-10 12:29N 51°17' E 004°15'0 0.0
2017-Sep-10 11:59N 51°17' E 004°15'0 0.0
2017-Sep-10 11:29N 51°17' E 004°15'0 0.0
2017-Sep-10 10:59N 51°17' E 004°15'0 0.0
2017-Sep-10 10:29N 51°17' E 004°15'0 0.0
2017-Sep-10 09:59N 51°17' E 004°15'0 0.0
2017-Sep-10 09:26N 51°17' E 004°15'0 0.0
2017-Sep-10 08:59N 51°17' E 004°15'0 0.0
2017-Sep-10 08:23N 51°17' E 004°15'0 0.0
2017-Sep-10 07:53N 51°17' E 004°15'0 0.0
2017-Sep-10 07:29N 51°17' E 004°15'0 0.0
2017-Sep-10 06:59N 51°17' E 004°15'0 0.0
2017-Sep-10 06:26N 51°17' E 004°15'0 0.0
2017-Sep-10 05:56N 51°17' E 004°15'0 0.0
2017-Sep-10 05:29N 51°17' E 004°15'0 0.0
2017-Sep-10 04:59N 51°17' E 004°15'0 0.0
2017-Sep-10 04:29N 51°17' E 004°15'0 0.0
2017-Sep-10 03:59N 51°17' E 004°15'0 0.0
2017-Sep-10 03:29N 51°17' E 004°15'0 0.0
2017-Sep-10 02:59N 51°17' E 004°15'0 0.0
2017-Sep-10 02:29N 51°17' E 004°15'0 0.0
2017-Sep-10 01:56N 51°17' E 004°15'0 0.0
2017-Sep-10 01:29N 51°17' E 004°15'0 0.0
2017-Sep-10 00:59N 51°17' E 004°15'0 0.0
2017-Sep-10 00:29N 51°17' E 004°15'0 0.0
2017-Sep-09 23:59N 51°17' E 004°15'0 0.0
2017-Sep-09 23:29N 51°17' E 004°15'0 0.0
2017-Sep-09 22:59N 51°17' E 004°15'0 0.0
2017-Sep-09 22:29N 51°17' E 004°15'0 0.0
2017-Sep-09 21:56N 51°17' E 004°15'0 0.0
2017-Sep-09 21:29N 51°17' E 004°15'0 0.0
2017-Sep-09 20:59N 51°17' E 004°15'0 0.0
2017-Sep-09 20:29N 51°17' E 004°15'0 0.0
2017-Sep-09 19:56N 51°17' E 004°15'0 0.2
2017-Sep-09 19:30N 51°17' E 004°16'2 4.7
2017-Sep-09 19:01N 51°20' E 004°16'3 6.0
2017-Sep-09 18:30N 51°22' E 004°13'4 8.8
2017-Sep-09 18:00N 51°22' E 004°06'510.4
2017-Sep-09 17:30N 51°26' E 004°01'510.8
2017-Sep-09 17:00N 51°22' E 003°55'611.8
2017-Sep-09 16:30N 51°22' E 003°45'612.3
2017-Sep-09 16:01N 51°26' E 003°40'611.8
2017-Sep-09 15:30N 51°25' E 003°30'815.2
2017-Sep-09 15:01N 51°24' E 003°18'816.3
2017-Sep-09 14:31N 51°24' E 003°05'916.9
2017-Sep-09 14:00N 51°22' E 002°52'816.3
2017-Sep-09 13:30N 51°22' E 002°39'4 6.9
2017-Sep-09 12:59N 51°20' E 002°34'0 0.0
2017-Sep-09 12:29N 51°20' E 002°34'0 0.4
2017-Sep-09 11:59N 51°20' E 002°33'0 0.1
2017-Sep-09 11:29N 51°20' E 002°33'0 0.0
2017-Sep-09 10:59N 51°20' E 002°33'0 0.0
2017-Sep-09 10:29N 51°20' E 002°33'0 0.0
2017-Sep-09 09:59N 51°20' E 002°33'0 0.0
2017-Sep-09 09:29N 51°20' E 002°33'0 0.0
2017-Sep-09 08:59N 51°20' E 002°33'0 0.0
2017-Sep-09 08:29N 51°20' E 002°33'  

Dump ship's entire track history